createdAt,value
2023-07-02T00:01:10.257Z,26.60
2023-07-02T00:03:39.401Z,25.20
2023-07-02T00:06:07.251Z,24.90
2023-07-02T00:08:34.917Z,26.00
2023-07-02T00:11:02.467Z,25.10
2023-07-02T00:13:29.937Z,25.80
2023-07-02T00:15:57.376Z,25.50
2023-07-02T00:18:24.790Z,23.30
2023-07-02T00:20:52.277Z,20.20
2023-07-02T00:23:19.710Z,24.10
2023-07-02T00:25:47.239Z,20.30
2023-07-02T00:28:14.700Z,22.80
2023-07-02T00:30:42.162Z,22.10
2023-07-02T00:33:09.657Z,18.10
2023-07-02T00:35:37.090Z,24.20
2023-07-02T00:38:04.655Z,22.90
2023-07-02T00:40:32.493Z,22.90
2023-07-02T00:42:59.905Z,25.80
2023-07-02T00:45:27.714Z,25.20
2023-07-02T00:47:55.988Z,23.30
2023-07-02T00:50:24.229Z,24.10
2023-07-02T00:52:51.644Z,24.50
2023-07-02T00:55:19.515Z,27.70
2023-07-02T00:57:47.865Z,26.60
2023-07-02T01:00:15.435Z,23.50
2023-07-02T01:02:45.791Z,26.10
2023-07-02T01:05:16.858Z,24.60
2023-07-02T01:07:44.394Z,27.40
2023-07-02T01:10:12.787Z,27.50
2023-07-02T01:12:40.346Z,28.40
2023-07-02T01:15:08.460Z,26.00
2023-07-02T01:17:38.982Z,27.40
2023-07-02T01:20:09.893Z,25.50
2023-07-02T01:22:37.487Z,27.30
2023-07-02T01:25:05.258Z,34.20
2023-07-02T01:27:32.744Z,29.00
2023-07-02T01:30:00.225Z,28.20
2023-07-02T01:32:28.049Z,26.50
2023-07-02T01:34:55.503Z,26.00
2023-07-02T01:37:22.985Z,24.50
2023-07-02T01:39:50.403Z,22.70
2023-07-02T01:42:20.233Z,21.10
2023-07-02T01:44:52.566Z,21.80
2023-07-02T01:47:21.412Z,24.50
2023-07-02T01:49:49.071Z,24.10
2023-07-02T01:52:17.105Z,23.30
2023-07-02T01:54:45.508Z,19.10
2023-07-02T01:57:12.911Z,21.80
2023-07-02T01:59:40.327Z,24.60
2023-07-02T02:02:07.854Z,19.40
2023-07-02T02:04:37.395Z,22.50
2023-07-02T02:07:04.946Z,17.80
2023-07-02T02:09:33.788Z,23.90
2023-07-02T02:12:01.361Z,22.10
2023-07-02T02:14:28.992Z,20.60
2023-07-02T02:16:56.387Z,20.80
2023-07-02T02:19:24.648Z,21.90
2023-07-02T02:21:52.122Z,20.30
2023-07-02T02:24:19.510Z,25.80
2023-07-02T02:26:46.929Z,21.70
2023-07-02T02:29:14.324Z,25.60
2023-07-02T02:31:41.839Z,21.80
2023-07-02T02:34:09.528Z,24.70
2023-07-02T02:36:37.066Z,19.90
2023-07-02T02:39:04.456Z,21.50
2023-07-02T02:41:32.328Z,22.80
2023-07-02T02:44:00.753Z,20.40
2023-07-02T02:46:28.604Z,20.10
2023-07-02T02:48:56.106Z,18.80
2023-07-02T02:51:23.471Z,19.00
2023-07-02T02:53:50.946Z,16.70
2023-07-02T02:56:18.410Z,22.00
2023-07-02T02:58:45.842Z,18.10
2023-07-02T03:01:13.671Z,21.10
2023-07-02T03:03:47.206Z,16.00
2023-07-02T03:06:16.288Z,17.50
2023-07-02T03:08:44.199Z,14.20
2023-07-02T03:11:11.739Z,18.20
2023-07-02T03:13:39.285Z,16.40
2023-07-02T03:16:06.979Z,21.70
2023-07-02T03:18:34.773Z,14.20
2023-07-02T03:21:02.221Z,13.70
2023-07-02T03:23:29.670Z,13.50
2023-07-02T03:25:57.175Z,12.30
2023-07-02T03:28:24.672Z,13.40
2023-07-02T03:30:52.733Z,13.80
2023-07-02T03:33:20.307Z,12.60
2023-07-02T03:35:47.688Z,14.30
2023-07-02T03:38:16.246Z,12.50
2023-07-02T03:40:43.700Z,14.80
2023-07-02T03:43:12.020Z,13.60
2023-07-02T03:45:39.529Z,16.40
2023-07-02T03:48:07.078Z,14.50
2023-07-02T03:50:34.767Z,14.50
2023-07-02T03:53:02.446Z,15.60
2023-07-02T03:55:29.849Z,15.00
2023-07-02T03:57:57.182Z,16.70
2023-07-02T04:00:24.585Z,14.90
2023-07-02T04:02:52.885Z,14.60
2023-07-02T04:05:21.431Z,14.70
2023-07-02T04:08:49.407Z,18.80
2023-07-02T04:11:16.786Z,15.40
2023-07-02T04:13:44.327Z,16.50
2023-07-02T04:16:11.863Z,16.20
2023-07-02T04:18:39.328Z,16.60
2023-07-02T04:21:06.934Z,16.50
2023-07-02T04:23:34.364Z,18.60
2023-07-02T04:26:09.067Z,15.90
2023-07-02T04:28:49.771Z,15.80
2023-07-02T04:31:20.580Z,17.00
2023-07-02T04:33:48.145Z,14.10
2023-07-02T04:36:15.711Z,15.00
2023-07-02T04:38:43.193Z,14.00
2023-07-02T04:41:11.619Z,21.00
2023-07-02T04:43:39.884Z,13.10
2023-07-02T04:46:08.915Z,18.20
2023-07-02T04:48:37.393Z,15.40
2023-07-02T04:51:05.104Z,15.40
2023-07-02T04:53:32.560Z,13.70
2023-07-02T04:56:00.177Z,15.40
2023-07-02T04:58:28.402Z,17.50
2023-07-02T05:00:55.825Z,14.20
2023-07-02T05:03:23.526Z,12.90
2023-07-02T05:05:50.990Z,12.10
2023-07-02T05:08:18.375Z,15.30
2023-07-02T05:10:45.946Z,13.70
2023-07-02T05:13:13.563Z,17.30
2023-07-02T05:15:40.966Z,13.00
2023-07-02T05:18:12.219Z,15.40
2023-07-02T05:20:39.688Z,15.50
2023-07-02T05:23:07.141Z,13.40
2023-07-02T05:25:37.193Z,13.60
2023-07-02T05:28:04.747Z,17.20
2023-07-02T05:30:32.208Z,11.20
2023-07-02T05:32:59.777Z,13.30
2023-07-02T05:35:27.197Z,11.90
2023-07-02T05:37:54.587Z,14.50
2023-07-02T05:40:22.076Z,11.30
2023-07-02T05:42:49.715Z,12.00
2023-07-02T05:45:17.324Z,16.30
2023-07-02T05:47:44.823Z,12.40
2023-07-02T05:50:12.231Z,15.80
2023-07-02T05:52:39.860Z,15.10
2023-07-02T05:55:11.530Z,11.30
2023-07-02T05:57:39.803Z,15.30
2023-07-02T06:00:09.528Z,14.20
2023-07-02T06:02:40.253Z,13.10
2023-07-02T06:05:08.168Z,17.00
2023-07-02T06:07:35.892Z,14.40
2023-07-02T06:10:04.322Z,12.90
2023-07-02T06:12:31.716Z,11.50
2023-07-02T06:14:59.104Z,11.50
2023-07-02T06:17:26.569Z,11.40
2023-07-02T06:19:54.053Z,11.90
2023-07-02T06:22:21.535Z,10.90
2023-07-02T06:24:49.957Z,11.50
2023-07-02T06:27:17.574Z,7.30
2023-07-02T06:29:45.081Z,8.30
2023-07-02T06:32:12.502Z,7.00
2023-07-02T06:34:39.894Z,8.00
2023-07-02T06:37:07.492Z,6.60
2023-07-02T06:39:34.897Z,6.70
2023-07-02T06:42:02.636Z,9.20
2023-07-02T06:44:32.405Z,7.40
2023-07-02T06:46:59.914Z,7.90
2023-07-02T06:49:27.334Z,11.00
2023-07-02T06:51:54.803Z,10.60
2023-07-02T06:54:22.218Z,10.90
2023-07-02T06:56:49.622Z,5.40
2023-07-02T06:59:21.894Z,8.30
2023-07-02T07:01:50.377Z,9.00
2023-07-02T07:04:17.933Z,5.90
2023-07-02T07:06:45.510Z,5.10
2023-07-02T07:09:13.034Z,6.50
2023-07-02T07:11:49.481Z,4.50
2023-07-02T07:14:17.353Z,5.00
2023-07-02T07:16:44.794Z,6.30
2023-07-02T07:19:12.243Z,10.80
2023-07-02T07:21:41.088Z,6.00
2023-07-02T07:24:18.252Z,4.90
2023-07-02T07:26:47.090Z,3.40
2023-07-02T07:29:14.813Z,4.70
2023-07-02T07:31:42.322Z,6.10
2023-07-02T07:34:09.940Z,5.20
2023-07-02T07:36:38.605Z,5.10
2023-07-02T07:39:06.153Z,5.70
2023-07-02T07:41:33.902Z,4.00
2023-07-02T07:44:02.604Z,4.60
2023-07-02T07:46:30.108Z,4.70
2023-07-02T07:48:57.607Z,5.90
2023-07-02T07:51:25.009Z,4.90
2023-07-02T07:53:52.404Z,4.80
2023-07-02T07:56:19.819Z,5.60
2023-07-02T07:58:47.339Z,4.90
2023-07-02T08:01:14.844Z,7.90
2023-07-02T08:03:42.377Z,3.90
2023-07-02T08:06:10.433Z,5.10
2023-07-02T08:08:38.112Z,4.40
2023-07-02T08:11:05.617Z,3.40
2023-07-02T08:13:33.074Z,6.90
2023-07-02T08:16:06.312Z,3.90
2023-07-02T08:18:50.778Z,4.50
2023-07-02T08:21:21.980Z,6.20
2023-07-02T08:23:49.494Z,3.40
2023-07-02T08:26:17.001Z,4.20
2023-07-02T08:28:44.538Z,3.10
2023-07-02T08:31:12.151Z,4.00
2023-07-02T08:33:39.628Z,4.80
2023-07-02T08:36:07.144Z,4.30
2023-07-02T08:38:34.881Z,4.20
2023-07-02T08:41:02.388Z,4.60
2023-07-02T08:43:30.180Z,4.60
2023-07-02T08:45:57.627Z,7.50
2023-07-02T08:48:27.555Z,4.20
2023-07-02T08:50:55.154Z,8.80
2023-07-02T08:53:30.876Z,4.50
2023-07-02T08:55:58.471Z,4.80
2023-07-02T08:58:26.409Z,3.40
2023-07-02T09:01:11.754Z,5.80
2023-07-02T09:04:07.464Z,6.00
2023-07-02T09:06:36.400Z,3.50
2023-07-02T09:09:07.333Z,3.90
2023-07-02T09:11:35.804Z,4.10
2023-07-02T09:14:03.741Z,5.30
2023-07-02T09:16:33.064Z,5.90
2023-07-02T09:19:04.368Z,3.30
2023-07-02T09:21:48.787Z,5.70
2023-07-02T09:24:20.613Z,5.40
2023-07-02T09:26:50.763Z,5.50
2023-07-02T09:29:33.096Z,4.00
2023-07-02T09:32:11.293Z,7.70
2023-07-02T09:34:40.835Z,5.60
2023-07-02T09:37:08.492Z,4.30
2023-07-02T09:39:36.970Z,3.40
2023-07-02T09:42:07.106Z,4.10
2023-07-02T09:44:35.218Z,13.10
2023-07-02T09:47:06.673Z,7.00
2023-07-02T09:49:38.259Z,5.70
2023-07-02T09:52:06.742Z,4.70
2023-07-02T09:54:34.357Z,4.70
2023-07-02T09:57:02.085Z,7.60
2023-07-02T09:59:29.893Z,3.70
2023-07-02T10:01:57.885Z,8.60
2023-07-02T10:04:25.582Z,4.00
2023-07-02T10:06:54.838Z,4.90
2023-07-02T10:09:35.071Z,5.80
2023-07-02T10:12:02.721Z,3.40
2023-07-02T10:14:42.564Z,6.40
2023-07-02T10:17:10.076Z,5.90
2023-07-02T10:19:42.404Z,4.00
2023-07-02T10:22:10.289Z,4.40
2023-07-02T10:24:38.574Z,5.00
2023-07-02T10:27:06.079Z,4.80
2023-07-02T10:29:33.510Z,4.50
2023-07-02T10:32:01.323Z,4.60
2023-07-02T10:34:37.890Z,4.00
2023-07-02T10:37:05.593Z,6.40
2023-07-02T10:39:33.109Z,5.00
2023-07-02T10:42:10.402Z,4.80
2023-07-02T10:44:53.892Z,6.60
2023-07-02T10:47:21.405Z,7.80
2023-07-02T10:49:48.923Z,6.70
2023-07-02T10:52:16.310Z,4.10
2023-07-02T10:54:44.276Z,4.90
2023-07-02T10:57:12.924Z,4.20
2023-07-02T10:59:40.371Z,10.10
2023-07-02T11:02:07.930Z,4.50
2023-07-02T11:04:35.396Z,4.80
2023-07-02T11:07:02.853Z,5.00
2023-07-02T11:09:30.460Z,3.80
2023-07-02T11:11:59.580Z,5.60
2023-07-02T11:14:36.996Z,3.90
2023-07-02T11:17:06.620Z,4.40
2023-07-02T11:19:34.730Z,3.90
2023-07-02T11:22:03.639Z,5.30
2023-07-02T11:24:35.523Z,3.70
2023-07-02T11:27:04.754Z,5.60
2023-07-02T11:29:32.929Z,3.60
2023-07-02T11:32:07.823Z,3.20
2023-07-02T11:34:35.365Z,4.70
2023-07-02T11:37:02.872Z,9.00
2023-07-02T11:39:30.316Z,13.30
2023-07-02T11:41:57.754Z,7.80
2023-07-02T11:44:25.161Z,7.80
2023-07-02T11:46:53.354Z,6.30
2023-07-02T11:49:21.055Z,5.80
2023-07-02T11:51:49.861Z,9.20
2023-07-02T11:54:19.051Z,8.70
2023-07-02T11:56:46.495Z,13.00
2023-07-02T11:59:13.964Z,12.10
2023-07-02T12:01:41.522Z,15.10
2023-07-02T12:04:13.110Z,14.40
2023-07-02T12:06:40.665Z,12.40
2023-07-02T12:09:08.040Z,12.40
2023-07-02T12:11:35.425Z,12.10
2023-07-02T12:14:02.863Z,10.80
2023-07-02T12:16:30.265Z,11.50
2023-07-02T12:18:57.726Z,8.70
2023-07-02T12:21:25.324Z,10.60
2023-07-02T12:23:52.912Z,7.80
2023-07-02T12:26:20.427Z,8.30
2023-07-02T12:28:47.809Z,7.40
2023-07-02T12:31:15.264Z,10.20
2023-07-02T12:33:42.943Z,9.50
2023-07-02T12:36:10.761Z,9.90
2023-07-02T12:38:38.158Z,11.40
2023-07-02T12:41:05.798Z,11.20
2023-07-02T12:43:33.217Z,12.90
2023-07-02T12:46:00.801Z,11.80
2023-07-02T12:48:28.238Z,9.50
2023-07-02T12:50:59.736Z,10.40
2023-07-02T12:53:27.635Z,11.70
2023-07-02T12:55:56.085Z,8.00
2023-07-02T12:58:26.104Z,8.40
2023-07-02T13:00:53.572Z,8.00
2023-07-02T13:03:21.946Z,7.60
2023-07-02T13:05:49.971Z,11.10
2023-07-02T13:08:17.705Z,11.00
2023-07-02T13:10:45.195Z,10.00
2023-07-02T13:13:22.747Z,12.20
2023-07-02T13:16:27.078Z,11.00
2023-07-02T13:18:56.861Z,10.40
2023-07-02T13:21:24.292Z,10.30
2023-07-02T13:23:51.702Z,6.60
2023-07-02T13:26:19.319Z,6.80
2023-07-02T13:28:48.867Z,5.80
2023-07-02T13:31:17.133Z,8.30
2023-07-02T13:33:44.605Z,7.50
2023-07-02T13:36:11.999Z,35.80
2023-07-02T13:38:39.487Z,22.10
2023-07-02T13:41:06.960Z,14.10
2023-07-02T13:43:34.395Z,9.60
2023-07-02T13:46:01.936Z,7.30
2023-07-02T13:48:29.470Z,7.40
2023-07-02T13:50:56.840Z,9.50
2023-07-02T13:53:24.285Z,7.80
2023-07-02T13:55:52.234Z,6.80
2023-07-02T13:58:29.423Z,8.20
2023-07-02T14:00:58.199Z,6.00
2023-07-02T14:03:25.695Z,8.80
2023-07-02T14:05:53.388Z,10.00
2023-07-02T14:08:21.117Z,22.20
2023-07-02T14:10:48.854Z,8.90
2023-07-02T14:13:16.585Z,6.70
2023-07-02T14:15:43.999Z,5.70
2023-07-02T14:18:12.856Z,4.20
2023-07-02T14:20:40.405Z,6.20
2023-07-02T14:23:08.265Z,4.10
2023-07-02T14:25:41.958Z,4.20
2023-07-02T14:28:10.209Z,5.30
2023-07-02T14:30:37.894Z,6.90
2023-07-02T14:33:05.502Z,6.90
2023-07-02T14:35:33.039Z,6.00
2023-07-02T14:38:00.413Z,6.10
2023-07-02T14:40:28.878Z,4.90
2023-07-02T14:42:59.704Z,5.20
2023-07-02T14:45:27.197Z,4.50
2023-07-02T14:47:54.781Z,4.90
2023-07-02T14:50:22.279Z,6.20
2023-07-02T14:52:49.686Z,5.80
2023-07-02T14:55:17.128Z,5.00
2023-07-02T14:57:44.874Z,5.80
2023-07-02T15:00:12.809Z,4.80
2023-07-02T15:02:40.269Z,4.10
2023-07-02T15:05:08.162Z,5.00
2023-07-02T15:07:36.236Z,5.00
2023-07-02T15:10:03.640Z,5.10
2023-07-02T15:12:31.135Z,6.00
2023-07-02T15:14:58.618Z,4.10
2023-07-02T15:17:32.051Z,5.40
2023-07-02T15:20:00.751Z,5.80
2023-07-02T15:22:28.406Z,5.30
2023-07-02T15:24:56.039Z,7.90
2023-07-02T15:27:23.436Z,5.80
2023-07-02T15:29:50.875Z,6.20
2023-07-02T15:32:18.315Z,6.50
2023-07-02T15:34:45.795Z,6.40
2023-07-02T15:37:18.607Z,5.60
2023-07-02T15:39:46.020Z,5.50
2023-07-02T15:42:13.446Z,6.20
2023-07-02T15:44:40.906Z,4.90
2023-07-02T15:47:13.218Z,4.70
2023-07-02T15:49:43.126Z,5.80
2023-07-02T15:52:10.583Z,4.70
2023-07-02T15:54:37.936Z,7.10
2023-07-02T15:57:05.511Z,8.50
2023-07-02T15:59:32.982Z,5.70
2023-07-02T16:02:00.395Z,6.10
2023-07-02T16:04:28.082Z,5.40
2023-07-02T16:06:55.857Z,6.20
2023-07-02T16:09:23.421Z,6.60
2023-07-02T16:11:53.729Z,5.30
2023-07-02T16:14:23.402Z,5.70
2023-07-02T16:16:55.712Z,5.40
2023-07-02T16:19:25.837Z,4.70
2023-07-02T16:21:56.652Z,5.00
2023-07-02T16:26:24.110Z,5.60
2023-07-02T16:28:51.588Z,8.60
2023-07-02T16:31:21.111Z,9.70
2023-07-02T16:33:49.096Z,6.10
2023-07-02T16:36:16.940Z,4.20
2023-07-02T16:38:49.719Z,6.30
2023-07-02T16:41:17.984Z,4.20
2023-07-02T16:43:50.845Z,5.30
2023-07-02T16:48:48.463Z,7.10
2023-07-02T16:51:16.000Z,4.80
2023-07-02T16:53:43.452Z,4.80
2023-07-02T16:56:14.007Z,4.80
2023-07-02T16:58:41.499Z,5.00
2023-07-02T17:01:11.127Z,6.30
2023-07-02T17:03:38.808Z,4.40
2023-07-02T17:06:07.084Z,6.00
2023-07-02T17:08:38.342Z,4.10
2023-07-02T17:11:06.671Z,7.50
2023-07-02T17:13:36.524Z,5.20
2023-07-02T17:16:04.638Z,5.90
2023-07-02T17:18:33.298Z,6.10
2023-07-02T17:21:00.756Z,4.90
2023-07-02T17:23:30.570Z,5.80
2023-07-02T17:26:07.918Z,6.80
2023-07-02T17:28:35.535Z,11.30
2023-07-02T17:31:03.167Z,9.70
2023-07-02T17:33:30.833Z,5.60
2023-07-02T17:35:58.295Z,8.10
2023-07-02T17:38:25.707Z,5.60
2023-07-02T17:40:53.363Z,5.60
2023-07-02T17:43:20.808Z,4.90
2023-07-02T17:45:57.600Z,7.90
2023-07-02T17:48:28.707Z,5.30
2023-07-02T17:50:57.129Z,4.40
2023-07-02T17:53:25.518Z,7.80
2023-07-02T17:55:53.059Z,5.60
2023-07-02T17:58:20.448Z,6.30
2023-07-02T18:00:51.622Z,6.50
2023-07-02T18:03:19.631Z,7.30
2023-07-02T18:05:47.976Z,5.00
2023-07-02T18:08:15.797Z,5.40
2023-07-02T18:10:46.633Z,12.10
2023-07-02T18:13:14.067Z,12.40
2023-07-02T18:15:41.827Z,5.30
2023-07-02T18:18:10.685Z,5.20
2023-07-02T18:20:38.127Z,4.70
2023-07-02T18:23:05.546Z,6.10
2023-07-02T18:32:55.201Z,4.00
2023-07-02T18:35:22.821Z,5.10
2023-07-02T18:37:50.308Z,4.80
2023-07-02T18:40:23.148Z,5.00
2023-07-02T18:45:18.963Z,5.70
2023-07-02T18:47:46.507Z,5.20
2023-07-02T18:50:16.899Z,4.80
2023-07-02T18:52:44.934Z,3.30
2023-07-02T18:55:12.427Z,6.60
2023-07-02T18:57:40.145Z,5.80
2023-07-02T19:00:09.856Z,5.00
2023-07-02T19:02:38.305Z,6.30
2023-07-02T19:05:07.167Z,6.80
2023-07-02T19:07:34.786Z,4.60
2023-07-02T19:10:04.759Z,4.90
2023-07-02T19:12:32.864Z,4.80
2023-07-02T19:15:00.547Z,5.20
2023-07-02T19:17:32.569Z,4.80
2023-07-02T19:20:00.052Z,3.80
2023-07-02T19:22:27.510Z,7.70
2023-07-02T19:24:54.925Z,6.90
2023-07-02T19:27:22.359Z,6.20
2023-07-02T19:29:50.841Z,4.60
2023-07-02T19:32:18.388Z,4.40
2023-07-02T19:34:48.759Z,3.60
2023-07-02T19:37:16.384Z,5.40
2023-07-02T19:39:43.779Z,4.50
2023-07-02T19:42:16.176Z,4.20
2023-07-02T19:44:43.745Z,2.80
2023-07-02T19:47:11.278Z,4.10
2023-07-02T19:49:45.473Z,7.20
2023-07-02T19:52:14.947Z,7.00
2023-07-02T19:54:46.011Z,5.90
2023-07-02T19:57:15.961Z,5.60
2023-07-02T19:59:47.858Z,6.70
2023-07-02T20:02:19.325Z,4.40
2023-07-02T20:04:48.891Z,3.30
2023-07-02T20:07:24.020Z,2.90
2023-07-02T20:09:51.447Z,3.10
2023-07-02T20:12:19.099Z,4.60
2023-07-02T20:14:50.091Z,3.20
2023-07-02T20:17:20.137Z,4.40
2023-07-02T20:19:52.709Z,3.80
2023-07-02T20:22:20.524Z,3.40
2023-07-02T20:24:48.038Z,3.20
2023-07-02T20:27:19.557Z,4.40
2023-07-02T20:29:48.582Z,4.90
2023-07-02T20:32:16.933Z,3.30
2023-07-02T20:34:55.153Z,2.20
2023-07-02T20:37:27.705Z,3.40
2023-07-02T20:39:55.104Z,5.60
2023-07-02T20:42:23.242Z,2.90
2023-07-02T20:44:51.350Z,3.60
2023-07-02T20:47:19.379Z,3.80
2023-07-02T20:49:50.991Z,4.90
2023-07-02T20:52:19.874Z,3.50
2023-07-02T20:54:47.382Z,4.00
2023-07-02T20:57:15.791Z,2.40
2023-07-02T20:59:44.126Z,3.00
2023-07-02T21:02:19.568Z,5.60
2023-07-02T21:04:48.157Z,3.10
2023-07-02T21:07:15.633Z,5.80
2023-07-02T21:09:45.383Z,3.60
2023-07-02T21:12:12.818Z,5.70
2023-07-02T21:14:40.219Z,7.10
2023-07-02T21:17:11.111Z,5.80
2023-07-02T21:19:38.639Z,4.40
2023-07-02T21:22:06.260Z,10.10
2023-07-02T21:24:36.026Z,4.80
2023-07-02T21:27:06.421Z,3.60
2023-07-02T21:29:33.928Z,5.60
2023-07-02T21:32:01.421Z,4.70
2023-07-02T21:34:28.971Z,3.40
2023-07-02T21:36:59.787Z,4.10
2023-07-02T21:39:27.213Z,4.00
2023-07-02T21:41:54.633Z,4.20
2023-07-02T21:44:22.031Z,5.10
2023-07-02T21:46:49.516Z,4.90
2023-07-02T21:49:17.020Z,8.10
2023-07-02T21:51:44.444Z,7.80
2023-07-02T21:54:11.840Z,9.70
2023-07-02T21:56:39.223Z,6.50
2023-07-02T21:59:16.868Z,6.30
2023-07-02T22:01:50.998Z,3.30
2023-07-02T22:04:18.882Z,3.80
2023-07-02T22:06:46.305Z,4.80
2023-07-02T22:09:13.804Z,5.10
2023-07-02T22:11:41.247Z,3.20
2023-07-02T22:14:08.652Z,3.70
2023-07-02T22:16:36.126Z,4.40
2023-07-02T22:19:05.689Z,3.90
2023-07-02T22:21:36.369Z,8.70
2023-07-02T22:24:04.037Z,6.10
2023-07-02T22:26:31.424Z,5.30
2023-07-02T22:29:01.796Z,6.40
2023-07-02T22:33:43.069Z,3.50
2023-07-02T22:36:10.454Z,4.70
2023-07-02T22:38:37.915Z,4.80
2023-07-02T22:41:05.317Z,4.50
2023-07-02T22:43:32.672Z,4.70
2023-07-02T22:46:00.090Z,6.70
2023-07-02T22:48:32.373Z,5.20
2023-07-02T22:50:59.939Z,5.30
2023-07-02T22:53:27.486Z,4.30
2023-07-02T22:55:54.884Z,4.50
2023-07-02T22:58:27.278Z,4.20
2023-07-02T23:00:59.534Z,4.00
2023-07-02T23:03:32.017Z,5.20
2023-07-02T23:05:59.624Z,4.80
2023-07-02T23:08:28.110Z,6.40
2023-07-02T23:10:55.515Z,9.20
